Terminal Aerodrome Forecast
Issued by NWS

Home | Current Version | Previous Version | Text Only | Print | Product List | Glossary On
Versions: 1 2 3 4 5 6 7 8 9 10 11 12 13 14 15 16 17
030
FTUS43 KGRB 070520
TAFMTW
TAF
KMTW 070520Z 0706/0806 25014G24KT P6SM -SN BKN027
     FM071500 26017G30KT P6SM BKN028
     FM072200 26013G24KT P6SM BKN035
     FM080300 26013G24KT P6SM BKN028=

USA.gov is the U.S. government's official web portal to all federal, state and local government web resources and services.